createdAt,value
2019-01-27T00:02:00.868Z,62.66
2019-01-27T00:04:30.498Z,62.41
2019-01-27T00:06:56.664Z,61.94
2019-01-27T00:09:27.852Z,61.57
2019-01-27T00:11:54.285Z,61.23
2019-01-27T00:14:20.499Z,61.49
2019-01-27T00:16:46.654Z,61.95
2019-01-27T00:19:12.810Z,60.68
2019-01-27T00:21:39.085Z,60.78
2019-01-27T00:24:05.249Z,60.86
2019-01-27T00:26:31.407Z,61.65
2019-01-27T00:28:57.598Z,61.89
2019-01-27T00:31:23.758Z,62.09
2019-01-27T00:33:49.907Z,60.53
2019-01-27T00:36:16.083Z,60.75
2019-01-27T00:38:42.241Z,61.74
2019-01-27T00:41:08.501Z,61.08
2019-01-27T00:43:34.830Z,60.54
2019-01-27T00:46:00.970Z,60.15
2019-01-27T00:48:27.133Z,60.42
2019-01-27T00:50:53.324Z,60.35
2019-01-27T00:53:19.471Z,59.64
2019-01-27T00:55:45.638Z,59.98
2019-01-27T00:58:11.834Z,59.98
2019-01-27T01:00:38.186Z,60.13
2019-01-27T01:03:05.240Z,60.53
2019-01-27T01:05:31.431Z,61.14
2019-01-27T01:07:57.687Z,61.09
2019-01-27T01:10:23.849Z,62.41
2019-01-27T01:12:50.251Z,63.63
2019-01-27T01:15:16.809Z,62.27
2019-01-27T01:17:42.967Z,62.67
2019-01-27T01:20:12.350Z,61.75
2019-01-27T01:22:39.302Z,60.70
2019-01-27T01:25:09.171Z,60.78
2019-01-27T01:27:35.365Z,62.27
2019-01-27T01:30:01.525Z,61.59
2019-01-27T01:32:27.681Z,61.41
2019-01-27T01:34:53.871Z,61.55
2019-01-27T01:37:20.031Z,60.40
2019-01-27T01:39:46.246Z,59.91
2019-01-27T01:42:12.532Z,59.01
2019-01-27T01:44:38.688Z,59.42
2019-01-27T01:47:04.846Z,60.47
2019-01-27T01:49:31.038Z,60.38
2019-01-27T01:51:57.198Z,61.16
2019-01-27T01:54:23.361Z,60.79
2019-01-27T01:56:49.551Z,60.47
2019-01-27T01:59:15.709Z,59.90
2019-01-27T02:01:41.976Z,59.72
2019-01-27T02:04:08.168Z,60.56
2019-01-27T02:06:34.324Z,60.50
2019-01-27T02:09:00.480Z,60.85
2019-01-27T02:11:26.669Z,60.34
2019-01-27T02:13:52.823Z,60.05
2019-01-27T02:16:18.975Z,59.61
2019-01-27T02:18:45.273Z,60.01
2019-01-27T02:21:11.424Z,59.83
2019-01-27T02:23:37.582Z,59.68
2019-01-27T02:26:04.271Z,60.27
2019-01-27T02:28:30.435Z,60.00
2019-01-27T02:30:56.602Z,60.60
2019-01-27T02:33:22.782Z,60.25
2019-01-27T02:35:49.039Z,60.41
2019-01-27T02:38:15.187Z,60.33
2019-01-27T02:40:41.507Z,60.47
2019-01-27T02:43:07.662Z,60.43
2019-01-27T02:45:33.828Z,60.92
2019-01-27T02:48:00.014Z,60.80
2019-01-27T02:50:26.172Z,60.36
2019-01-27T02:52:52.336Z,60.68
2019-01-27T02:55:18.520Z,60.45
2019-01-27T02:57:44.678Z,60.33
2019-01-27T03:00:17.144Z,59.77
2019-01-27T03:02:43.518Z,60.07
2019-01-27T03:05:18.117Z,61.23
2019-01-27T03:07:44.371Z,61.56
2019-01-27T03:10:15.697Z,61.01
2019-01-27T03:12:41.961Z,61.81
2019-01-27T03:15:09.913Z,60.91
2019-01-27T03:17:36.205Z,61.58
2019-01-27T03:20:05.475Z,62.13
2019-01-27T03:22:31.631Z,62.32
2019-01-27T03:24:57.811Z,62.29
2019-01-27T03:27:23.962Z,62.32
2019-01-27T03:29:50.219Z,62.41
2019-01-27T03:32:16.425Z,62.48
2019-01-27T03:34:42.579Z,62.26
2019-01-27T03:37:08.735Z,62.49
2019-01-27T03:39:34.924Z,62.46
2019-01-27T03:42:01.291Z,61.85
2019-01-27T03:44:27.803Z,62.05
2019-01-27T03:46:53.992Z,63.52
2019-01-27T03:49:20.267Z,64.06
2019-01-27T03:51:46.420Z,63.46
2019-01-27T03:54:12.605Z,64.02
2019-01-27T03:56:38.859Z,64.19
2019-01-27T03:59:05.228Z,64.32
2019-01-27T04:01:31.424Z,64.12
2019-01-27T04:03:57.578Z,64.44
2019-01-27T04:06:23.832Z,64.58
2019-01-27T04:08:50.027Z,63.97
2019-01-27T04:11:16.176Z,63.67
2019-01-27T04:13:42.334Z,63.30
2019-01-27T04:16:08.632Z,63.23
2019-01-27T04:18:34.787Z,63.38
2019-01-27T04:21:00.937Z,63.11
2019-01-27T04:23:27.138Z,62.36
2019-01-27T04:25:53.286Z,61.77
2019-01-27T04:28:19.439Z,61.80
2019-01-27T04:30:45.729Z,61.20
2019-01-27T04:33:11.889Z,60.61
2019-01-27T04:35:38.053Z,61.37
2019-01-27T04:38:04.226Z,60.91
2019-01-27T04:40:30.682Z,61.13
2019-01-27T04:42:56.900Z,61.36
2019-01-27T04:45:27.772Z,60.87
2019-01-27T04:47:53.933Z,60.68
2019-01-27T04:50:20.085Z,61.44
2019-01-27T04:52:46.288Z,61.75
2019-01-27T04:55:14.641Z,62.71
2019-01-27T04:57:40.793Z,62.31
2019-01-27T05:00:10.689Z,63.46
2019-01-27T05:02:38.749Z,64.46
2019-01-27T05:05:08.509Z,63.78
2019-01-27T05:07:34.700Z,63.82
2019-01-27T05:10:00.858Z,64.35
2019-01-27T05:12:27.023Z,64.47
2019-01-27T05:14:53.518Z,65.95
2019-01-27T05:17:19.678Z,66.47
2019-01-27T05:19:45.931Z,66.26
2019-01-27T05:22:12.114Z,67.15
2019-01-27T05:24:38.275Z,65.82
2019-01-27T05:27:04.426Z,65.99
2019-01-27T05:29:30.612Z,66.35
2019-01-27T05:31:56.775Z,65.41
2019-01-27T05:34:22.928Z,65.24
2019-01-27T05:36:49.127Z,66.03
2019-01-27T05:39:15.293Z,65.58
2019-01-27T05:41:41.452Z,65.44
2019-01-27T05:44:07.707Z,64.77
2019-01-27T05:46:33.853Z,64.60
2019-01-27T05:49:00.000Z,64.65
2019-01-27T05:51:26.215Z,64.09
2019-01-27T05:53:52.363Z,63.60
2019-01-27T05:56:18.615Z,62.58
2019-01-27T05:58:44.819Z,62.84
2019-01-27T06:01:11.096Z,62.29
2019-01-27T06:03:37.234Z,61.37
2019-01-27T06:06:03.436Z,61.49
2019-01-27T06:08:29.584Z,61.97
2019-01-27T06:10:55.857Z,62.16
2019-01-27T06:13:22.044Z,61.34
2019-01-27T06:15:48.197Z,61.98
2019-01-27T06:18:14.371Z,61.97
2019-01-27T06:20:40.569Z,61.32
2019-01-27T06:23:06.831Z,61.16
2019-01-27T06:25:32.999Z,61.27
2019-01-27T06:27:59.171Z,60.31
2019-01-27T06:30:26.936Z,60.20
2019-01-27T06:35:36.758Z,58.66
2019-01-27T06:38:03.611Z,57.90
2019-01-27T06:40:29.801Z,57.17
2019-01-27T06:42:55.954Z,56.65
2019-01-27T06:45:22.752Z,55.81
2019-01-27T06:47:48.939Z,54.29
2019-01-27T06:50:15.104Z,53.66
2019-01-27T06:52:41.288Z,55.11
2019-01-27T06:55:10.972Z,54.10
2019-01-27T06:57:37.122Z,52.61
2019-01-27T07:00:08.787Z,53.41
2019-01-27T07:02:36.893Z,51.81
2019-01-27T07:05:08.150Z,52.75
2019-01-27T07:07:39.017Z,51.26
2019-01-27T07:10:21.248Z,51.87
2019-01-27T07:12:58.254Z,51.48
2019-01-27T07:15:26.321Z,50.64
2019-01-27T07:17:54.381Z,50.78
2019-01-27T07:20:31.187Z,49.01
2019-01-27T07:23:02.015Z,49.19
2019-01-27T07:25:30.082Z,48.16
2019-01-27T07:28:06.980Z,50.55
2019-01-27T07:30:35.071Z,50.03
2019-01-27T07:33:12.042Z,48.69
2019-01-27T07:35:40.109Z,50.03
2019-01-27T07:38:08.174Z,48.84
2019-01-27T07:40:38.790Z,49.53
2019-01-27T07:43:06.864Z,49.64
2019-01-27T07:45:37.771Z,49.92
2019-01-27T07:48:20.672Z,50.83
2019-01-27T07:50:48.732Z,51.05
2019-01-27T07:53:16.794Z,50.02
2019-01-27T07:58:36.667Z,50.12
2019-01-27T08:01:16.860Z,49.72
2019-01-27T08:03:47.553Z,49.33
2019-01-27T08:06:18.440Z,50.38
2019-01-27T08:08:46.507Z,49.50
2019-01-27T08:11:14.567Z,48.71
2019-01-27T08:13:57.436Z,49.97
2019-01-27T08:16:28.035Z,48.94
2019-01-27T08:18:56.099Z,47.44
2019-01-27T08:21:30.184Z,49.22
2019-01-27T08:24:15.578Z,50.48
2019-01-27T08:26:43.677Z,49.57
2019-01-27T08:29:11.756Z,50.53
2019-01-27T08:31:45.375Z,50.05
2019-01-27T08:34:16.886Z,50.79
2019-01-27T08:36:44.934Z,50.22
2019-01-27T08:39:18.559Z,49.14
2019-01-27T08:42:03.002Z,48.42
2019-01-27T08:44:31.103Z,49.36
2019-01-27T08:46:57.379Z,50.43
2019-01-27T08:49:23.575Z,50.06
2019-01-27T08:51:49.728Z,50.00
2019-01-27T08:54:15.876Z,49.53
2019-01-27T08:56:42.064Z,49.48
2019-01-27T08:59:08.230Z,49.18
2019-01-27T09:01:41.848Z,49.80
2019-01-27T09:04:09.955Z,49.95
2019-01-27T09:06:46.984Z,48.78
2019-01-27T09:09:17.930Z,50.11
2019-01-27T09:14:39.442Z,48.00
2019-01-27T09:17:13.288Z,47.71
2019-01-27T09:19:59.505Z,49.72
2019-01-27T09:22:33.142Z,49.70
2019-01-27T09:25:19.436Z,50.29
2019-01-27T09:27:56.274Z,52.37
2019-01-27T09:30:27.292Z,50.04
2019-01-27T09:32:55.358Z,48.46
2019-01-27T09:35:23.409Z,50.54
2019-01-27T09:38:06.323Z,48.19
2019-01-27T09:40:37.222Z,48.25
2019-01-27T09:43:22.239Z,50.18
2019-01-27T09:46:05.155Z,48.55
2019-01-27T09:48:26.398Z,48.54
2019-01-27T09:50:54.459Z,49.18
2019-01-27T09:53:22.519Z,49.60
2019-01-27T09:56:02.510Z,48.57
2019-01-27T09:58:30.588Z,48.01
2019-01-27T10:01:04.486Z,45.51
2019-01-27T10:03:50.436Z,46.65
2019-01-27T10:06:24.521Z,47.45
2019-01-27T10:09:07.708Z,46.72
2019-01-27T10:11:44.740Z,43.82
2019-01-27T10:14:30.975Z,45.46
2019-01-27T10:17:13.948Z,42.47
2019-01-27T10:19:44.845Z,43.38
2019-01-27T10:22:12.907Z,44.06
2019-01-27T10:24:43.836Z,42.47
2019-01-27T10:27:23.929Z,43.14
2019-01-27T10:29:57.602Z,45.73
2019-01-27T10:32:40.486Z,45.28
2019-01-27T10:35:24.369Z,43.40
2019-01-27T10:37:52.435Z,45.05
2019-01-27T10:40:25.446Z,45.98
2019-01-27T10:43:19.425Z,45.45
2019-01-27T10:45:50.336Z,43.99
2019-01-27T10:48:18.504Z,43.94
2019-01-27T10:50:49.396Z,45.32
2019-01-27T10:53:20.879Z,43.19
2019-01-27T10:55:56.545Z,41.28
2019-01-27T10:58:30.922Z,40.07
2019-01-27T11:01:07.727Z,44.02
2019-01-27T11:03:50.618Z,45.50
2019-01-27T11:06:21.746Z,46.13
2019-01-27T11:08:52.676Z,46.28
2019-01-27T11:11:20.730Z,45.69
2019-01-27T11:13:57.814Z,44.05
2019-01-27T11:16:31.567Z,46.68
2019-01-27T11:19:05.422Z,46.25
2019-01-27T11:21:45.562Z,45.93
2019-01-27T11:24:19.653Z,44.67
2019-01-27T11:26:47.713Z,45.46
2019-01-27T11:29:15.811Z,46.28
2019-01-27T11:32:02.017Z,47.75
2019-01-27T11:34:46.673Z,48.93
2019-01-27T11:37:23.515Z,47.49
2019-01-27T11:40:08.334Z,44.40
2019-01-27T11:42:36.444Z,44.76
2019-01-27T11:45:09.919Z,45.94
2019-01-27T11:47:44.098Z,46.83
2019-01-27T11:50:14.763Z,49.41
2019-01-27T11:52:41.146Z,48.46
2019-01-27T11:55:10.098Z,44.49
2019-01-27T11:57:36.244Z,45.72
2019-01-27T12:00:05.907Z,46.24
2019-01-27T12:02:32.100Z,42.57
2019-01-27T12:04:58.260Z,42.31
2019-01-27T12:07:24.527Z,41.80
2019-01-27T12:09:50.710Z,44.39
2019-01-27T12:12:16.979Z,43.13
2019-01-27T12:14:43.141Z,44.14
2019-01-27T12:17:11.267Z,44.20
2019-01-27T12:19:40.342Z,42.76
2019-01-27T12:22:07.296Z,40.85
2019-01-27T12:24:33.508Z,41.60
2019-01-27T12:26:59.795Z,42.37
2019-01-27T12:29:25.959Z,41.28
2019-01-27T12:31:52.268Z,39.10
2019-01-27T12:34:18.435Z,39.04
2019-01-27T12:36:44.600Z,40.22
2019-01-27T12:39:10.799Z,39.49
2019-01-27T12:41:36.967Z,37.97
2019-01-27T12:44:03.120Z,37.72
2019-01-27T12:46:29.328Z,37.11
2019-01-27T12:48:55.497Z,37.32
2019-01-27T12:51:21.663Z,37.17
2019-01-27T12:53:48.015Z,35.01
2019-01-27T12:56:15.197Z,33.64
2019-01-27T12:58:41.372Z,33.52
2019-01-27T13:01:07.663Z,33.40
2019-01-27T13:03:33.939Z,32.44
2019-01-27T13:06:00.151Z,33.77
2019-01-27T13:08:26.311Z,35.93
2019-01-27T13:10:52.480Z,37.64
2019-01-27T13:13:18.651Z,36.47
2019-01-27T13:15:44.931Z,36.12
2019-01-27T13:18:11.095Z,38.61
2019-01-27T13:20:37.257Z,41.23
2019-01-27T13:23:03.603Z,41.81
2019-01-27T13:25:29.866Z,41.48
2019-01-27T13:27:56.132Z,42.00
2019-01-27T13:30:24.441Z,41.80
2019-01-27T13:32:50.595Z,42.52
2019-01-27T13:35:17.260Z,42.06
2019-01-27T13:37:43.455Z,41.68
2019-01-27T13:40:17.123Z,41.42
2019-01-27T13:42:43.315Z,42.71
2019-01-27T13:45:13.431Z,42.63
2019-01-27T13:47:39.619Z,42.61
2019-01-27T13:50:10.157Z,43.02
2019-01-27T13:52:36.615Z,42.34
2019-01-27T13:55:05.941Z,43.84
2019-01-27T13:57:32.203Z,44.89
2019-01-27T13:59:58.587Z,44.84
2019-01-27T14:02:24.741Z,44.41
2019-01-27T14:04:50.901Z,45.78
2019-01-27T14:07:17.085Z,45.64
2019-01-27T14:09:43.247Z,45.88
2019-01-27T14:12:09.409Z,45.11
2019-01-27T14:14:35.600Z,45.54
2019-01-27T14:17:01.768Z,46.20
2019-01-27T14:19:29.739Z,46.78
2019-01-27T14:21:55.930Z,46.42
2019-01-27T14:24:22.094Z,45.56
2019-01-27T14:26:48.263Z,46.08
2019-01-27T14:29:14.460Z,46.87
2019-01-27T14:31:40.613Z,47.69
2019-01-27T14:34:06.897Z,48.14
2019-01-27T14:36:33.083Z,48.35
2019-01-27T14:38:59.375Z,49.56
2019-01-27T14:41:25.532Z,49.16
2019-01-27T14:43:51.724Z,49.24
2019-01-27T14:46:17.882Z,49.44
2019-01-27T14:48:44.048Z,50.13
2019-01-27T14:51:10.394Z,50.04
2019-01-27T14:53:36.532Z,50.45
2019-01-27T14:56:10.844Z,50.55
2019-01-27T14:58:37.032Z,51.10
2019-01-27T15:01:03.491Z,51.42
2019-01-27T15:03:29.747Z,51.75
2019-01-27T15:05:55.930Z,52.80
2019-01-27T15:08:22.080Z,53.71
2019-01-27T15:10:48.237Z,53.41
2019-01-27T15:13:14.425Z,53.84
2019-01-27T15:15:40.684Z,54.14
2019-01-27T15:18:06.845Z,54.15
2019-01-27T15:20:47.814Z,54.51
2019-01-27T15:23:14.080Z,54.44
2019-01-27T15:25:40.261Z,55.40
2019-01-27T15:28:06.447Z,57.07
2019-01-27T15:30:35.432Z,57.71
2019-01-27T15:33:01.725Z,58.68
2019-01-27T15:35:27.921Z,59.60
2019-01-27T15:37:54.192Z,60.10
2019-01-27T15:40:20.451Z,60.42
2019-01-27T15:42:46.641Z,61.30
2019-01-27T15:45:16.103Z,61.85
2019-01-27T15:47:42.359Z,62.21
2019-01-27T15:50:12.177Z,61.82
2019-01-27T15:52:38.330Z,63.44
2019-01-27T15:55:08.099Z,63.31
2019-01-27T15:57:35.264Z,62.77
2019-01-27T16:00:05.726Z,63.23
2019-01-27T16:02:31.980Z,63.44
2019-01-27T16:04:58.164Z,63.95
2019-01-27T16:07:24.410Z,63.74
2019-01-27T16:09:50.903Z,64.83
2019-01-27T16:12:17.103Z,64.41
2019-01-27T16:14:43.268Z,65.02
2019-01-27T16:17:09.536Z,64.69
2019-01-27T16:19:35.730Z,64.50
2019-01-27T16:22:01.900Z,64.06
2019-01-27T16:24:29.312Z,65.02
2019-01-27T16:26:55.658Z,67.69
2019-01-27T16:29:23.726Z,67.46
2019-01-27T16:31:51.789Z,66.16
2019-01-27T16:34:19.882Z,66.17
2019-01-27T16:36:46.053Z,66.04
2019-01-27T16:39:12.324Z,66.50
2019-01-27T16:41:38.540Z,66.55
2019-01-27T16:44:04.792Z,66.30
2019-01-27T16:46:30.952Z,66.04
2019-01-27T16:48:57.250Z,66.02
2019-01-27T16:51:23.519Z,66.23
2019-01-27T16:53:49.674Z,67.45
2019-01-27T16:56:15.978Z,67.10
2019-01-27T16:58:42.217Z,66.92
2019-01-27T17:01:08.423Z,66.73
2019-01-27T17:03:34.594Z,67.18
2019-01-27T17:06:00.858Z,68.50
2019-01-27T17:08:27.021Z,68.04
2019-01-27T17:10:53.321Z,67.38
2019-01-27T17:13:19.478Z,67.32
2019-01-27T17:15:45.639Z,67.22
2019-01-27T17:18:11.889Z,68.76
2019-01-27T17:20:38.045Z,69.03
2019-01-27T17:23:04.307Z,70.09
2019-01-27T17:25:31.937Z,69.79
2019-01-27T17:27:58.084Z,70.06
2019-01-27T17:30:25.752Z,69.73
2019-01-27T17:32:52.051Z,69.74
2019-01-27T17:35:18.805Z,69.69
2019-01-27T17:37:45.071Z,69.47
2019-01-27T17:40:15.601Z,68.93
2019-01-27T17:42:41.756Z,69.19
2019-01-27T17:45:14.391Z,68.92
2019-01-27T17:47:40.600Z,69.85
2019-01-27T17:50:11.013Z,69.14
2019-01-27T17:52:37.168Z,68.73
2019-01-27T17:55:06.967Z,69.15
2019-01-27T17:57:35.030Z,69.69
2019-01-27T18:00:03.150Z,69.64
2019-01-27T18:02:43.072Z,69.27
2019-01-27T18:05:13.898Z,69.21
2019-01-27T18:07:41.964Z,69.02
2019-01-27T18:10:14.542Z,69.62
2019-01-27T18:12:42.607Z,69.71
2019-01-27T18:15:09.277Z,69.72
2019-01-27T18:17:35.487Z,69.31
2019-01-27T18:20:01.754Z,69.30
2019-01-27T18:22:28.025Z,69.10
2019-01-27T18:24:54.382Z,69.51
2019-01-27T18:27:20.526Z,69.35
2019-01-27T18:29:47.052Z,69.35
2019-01-27T18:32:13.258Z,70.10
2019-01-27T18:34:39.556Z,69.69
2019-01-27T18:37:09.878Z,69.45
2019-01-27T18:39:36.150Z,69.28
2019-01-27T18:42:02.749Z,69.08
2019-01-27T18:44:28.922Z,68.91
2019-01-27T18:46:58.853Z,69.06
2019-01-27T18:49:28.088Z,68.96
2019-01-27T18:51:54.350Z,69.25
2019-01-27T18:54:40.329Z,69.51
2019-01-27T18:57:23.419Z,70.01
2019-01-27T19:00:05.632Z,70.46
2019-01-27T19:02:45.528Z,71.68
2019-01-27T19:05:13.624Z,71.80
2019-01-27T19:07:44.210Z,71.54
2019-01-27T19:10:21.135Z,70.86
2019-01-27T19:12:55.032Z,70.55
2019-01-27T19:15:28.704Z,70.75
2019-01-27T19:18:05.361Z,71.34
2019-01-27T19:20:35.990Z,71.68
2019-01-27T19:23:06.592Z,72.00
2019-01-27T19:25:37.482Z,71.68
2019-01-27T19:28:06.151Z,71.53
2019-01-27T19:30:34.228Z,70.97
2019-01-27T19:33:18.971Z,71.60
2019-01-27T19:35:52.644Z,71.06
2019-01-27T19:38:26.546Z,70.45
2019-01-27T19:40:57.148Z,71.59
2019-01-27T19:43:28.117Z,71.20
2019-01-27T19:45:59.017Z,70.71
2019-01-27T19:51:33.533Z,70.99
2019-01-27T19:54:10.470Z,70.63
2019-01-27T19:56:38.572Z,70.85
2019-01-27T19:59:06.637Z,71.20
2019-01-27T20:01:40.399Z,71.16
2019-01-27T20:04:11.029Z,71.21
2019-01-27T20:06:43.734Z,70.75
2019-01-27T20:09:28.335Z,70.65
2019-01-27T20:11:58.915Z,70.66
2019-01-27T20:14:35.641Z,70.42
2019-01-27T20:17:03.711Z,70.73
2019-01-27T20:19:37.392Z,71.45
2019-01-27T20:22:05.556Z,71.72
2019-01-27T20:24:33.615Z,71.27
2019-01-27T20:27:04.511Z,70.81
2019-01-27T20:29:48.938Z,70.83
2019-01-27T20:32:17.088Z,70.37
2019-01-27T20:34:56.830Z,70.17
2019-01-27T20:37:33.754Z,70.10
2019-01-27T20:40:19.831Z,70.72
2019-01-27T20:42:54.125Z,71.04
2019-01-27T20:45:25.231Z,70.86
2019-01-27T20:47:53.297Z,70.74
2019-01-27T20:50:36.422Z,70.87
2019-01-27T20:53:10.330Z,70.86
2019-01-27T20:55:50.412Z,70.82
2019-01-27T20:58:24.261Z,70.59
2019-01-27T21:01:01.240Z,70.37
2019-01-27T21:03:29.306Z,70.26
2019-01-27T21:06:12.510Z,69.96
2019-01-27T21:08:40.573Z,69.77
2019-01-27T21:11:25.340Z,69.84
2019-01-27T21:13:53.408Z,69.55
2019-01-27T21:16:39.694Z,69.87
2019-01-27T21:19:10.527Z,69.59
2019-01-27T21:21:36.694Z,69.44
2019-01-27T21:24:03.797Z,69.66
2019-01-27T21:26:29.954Z,69.39
2019-01-27T21:28:56.115Z,69.22
2019-01-27T21:31:23.161Z,69.06
2019-01-27T21:33:49.319Z,69.11
2019-01-27T21:36:15.472Z,69.08
2019-01-27T21:38:41.764Z,69.41
2019-01-27T21:41:07.927Z,69.63
2019-01-27T21:43:34.189Z,69.29
2019-01-27T21:46:00.498Z,69.50
2019-01-27T21:48:26.668Z,69.30
2019-01-27T21:50:52.844Z,69.33
2019-01-27T21:53:40.723Z,69.64
2019-01-27T21:55:54.869Z,69.85
2019-01-27T21:58:21.251Z,69.36
2019-01-27T22:00:47.526Z,69.66
2019-01-27T22:03:13.694Z,70.27
2019-01-27T22:05:39.851Z,70.87
2019-01-27T22:08:06.146Z,71.08
2019-01-27T22:10:32.316Z,70.89
2019-01-27T22:12:58.474Z,70.80
2019-01-27T22:15:24.660Z,70.67
2019-01-27T22:17:50.812Z,70.65
2019-01-27T22:20:16.968Z,70.37
2019-01-27T22:22:43.171Z,70.24
2019-01-27T22:25:12.128Z,70.34
2019-01-27T22:27:38.290Z,70.43
2019-01-27T22:30:08.185Z,70.93
2019-01-27T22:32:34.442Z,71.66
2019-01-27T22:35:00.602Z,72.02
2019-01-27T22:37:26.805Z,71.62
2019-01-27T22:39:52.972Z,73.05
2019-01-27T22:42:19.127Z,72.83
2019-01-27T22:44:45.319Z,72.57
2019-01-27T22:47:11.480Z,72.78
2019-01-27T22:49:37.631Z,72.85
2019-01-27T22:52:03.924Z,72.79
2019-01-27T22:54:30.186Z,71.93
2019-01-27T22:56:56.349Z,71.77
2019-01-27T22:59:22.646Z,71.52
2019-01-27T23:01:48.792Z,71.67
2019-01-27T23:04:14.945Z,71.35
2019-01-27T23:06:41.249Z,71.47
2019-01-27T23:09:09.423Z,71.27
2019-01-27T23:11:35.688Z,71.80
2019-01-27T23:14:02.064Z,71.70
2019-01-27T23:16:28.232Z,71.35
2019-01-27T23:18:54.515Z,71.02
2019-01-27T23:21:24.067Z,70.64
2019-01-27T23:23:50.343Z,70.41
2019-01-27T23:26:16.507Z,70.35
2019-01-27T23:28:42.710Z,70.58
2019-01-27T23:31:09.008Z,70.46
2019-01-27T23:33:35.193Z,70.68
2019-01-27T23:36:01.477Z,71.37
2019-01-27T23:38:28.919Z,71.21
2019-01-27T23:40:55.189Z,71.21
2019-01-27T23:43:21.356Z,71.48
2019-01-27T23:45:47.663Z,71.66
2019-01-27T23:48:13.993Z,71.72
2019-01-27T23:50:40.370Z,71.81
2019-01-27T23:53:06.525Z,71.65
2019-01-27T23:55:32.792Z,72.12
2019-01-27T23:57:58.978Z,72.16
